sensor_id;sensor_type;location;lat;lon;timestamp;P1;P2;P0
78678;PMS5003;67994;59.334;13.528;2023-07-13T00:00:00;5.0;5.0;
78678;PMS5003;67994;59.334;13.528;2023-07-13T00:01:00;5.0;5.0;
78678;PMS5003;67994;59.334;13.528;2023-07-13T00:02:00;5.0;5.0;
78678;PMS5003;67994;59.334;13.528;2023-07-13T00:03:00;5.0;5.0;
78678;PMS5003;67994;59.334;13.528;2023-07-13T00:04:00;11.0;5.2;
78678;PMS5003;67994;59.334;13.528;2023-07-13T00:05:00;11.0;5.2;
78678;PMS5003;67994;59.334;13.528;2023-07-13T00:06:00;11.0;5.2;
78678;PMS5003;67994;59.334;13.528;2023-07-13T00:07:00;11.0;5.2;
78678;PMS5003;67994;59.334;13.528;2023-07-13T00:08:00;11.0;5.2;
78678;PMS5003;67994;59.334;13.528;2023-07-13T00:09:00;8.3;5.2;
78678;PMS5003;67994;59.334;13.528;2023-07-13T00:10:00;8.3;5.2;
78678;PMS5003;67994;59.334;13.528;2023-07-13T00:11:00;8.3;5.2;
78678;PMS5003;67994;59.334;13.528;2023-07-13T00:12:00;8.3;5.2;
78678;PMS5003;67994;59.334;13.528;2023-07-13T00:13:00;8.3;5.2;
78678;PMS5003;67994;59.334;13.528;2023-07-13T00:14:00;7.0;7.0;
78678;PMS5003;67994;59.334;13.528;2023-07-13T00:15:01;7.0;7.0;
78678;PMS5003;67994;59.334;13.528;2023-07-13T00:16:00;7.0;7.0;
78678;PMS5003;67994;59.334;13.528;2023-07-13T00:17:00;7.0;7.0;
78678;PMS5003;67994;59.334;13.528;2023-07-13T00:18:00;7.0;7.0;
78678;PMS5003;67994;59.334;13.528;2023-07-13T00:19:00;7.6;7.6;
78678;PMS5003;67994;59.334;13.528;2023-07-13T00:20:00;7.6;7.6;
78678;PMS5003;67994;59.334;13.528;2023-07-13T00:21:00;7.6;7.6;
78678;PMS5003;67994;59.334;13.528;2023-07-13T00:22:00;7.6;7.6;
78678;PMS5003;67994;59.334;13.528;2023-07-13T00:23:00;7.6;7.6;
78678;PMS5003;67994;59.334;13.528;2023-07-13T00:24:00;9.6;5.0;
78678;PMS5003;67994;59.334;13.528;2023-07-13T00:25:00;9.6;5.0;
78678;PMS5003;67994;59.334;13.528;2023-07-13T00:26:00;9.6;5.0;
78678;PMS5003;67994;59.334;13.528;2023-07-13T00:27:00;9.6;5.0;
78678;PMS5003;67994;59.334;13.528;2023-07-13T00:28:00;9.6;5.0;
78678;PMS5003;67994;59.334;13.528;2023-07-13T00:29:00;9.1;8.0;
78678;PMS5003;67994;59.334;13.528;2023-07-13T00:30:00;9.1;8.0;
78678;PMS5003;67994;59.334;13.528;2023-07-13T00:31:00;9.1;8.0;
78678;PMS5003;67994;59.334;13.528;2023-07-13T00:32:00;9.1;8.0;
78678;PMS5003;67994;59.334;13.528;2023-07-13T00:33:00;9.1;8.0;
78678;PMS5003;67994;59.334;13.528;2023-07-13T00:34:00;4.7;4.7;
78678;PMS5003;67994;59.334;13.528;2023-07-13T00:35:00;4.7;4.7;
78678;PMS5003;67994;59.334;13.528;2023-07-13T00:36:00;4.7;4.7;
78678;PMS5003;67994;59.334;13.528;2023-07-13T00:37:00;4.7;4.7;
78678;PMS5003;67994;59.334;13.528;2023-07-13T00:38:00;4.7;4.7;
78678;PMS5003;67994;59.334;13.528;2023-07-13T00:39:00;5.4;4.8;
78678;PMS5003;67994;59.334;13.528;2023-07-13T00:40:00;5.4;4.8;
78678;PMS5003;67994;59.334;13.528;2023-07-13T00:41:00;5.4;4.8;
78678;PMS5003;67994;59.334;13.528;2023-07-13T00:42:00;5.4;4.8;
78678;PMS5003;67994;59.334;13.528;2023-07-13T00:43:00;5.4;4.8;
78678;PMS5003;67994;59.334;13.528;2023-07-13T00:44:00;8.7;7.7;
78678;PMS5003;67994;59.334;13.528;2023-07-13T00:45:00;8.7;7.7;
78678;PMS5003;67994;59.334;13.528;2023-07-13T00:46:10;8.7;7.7;
78678;PMS5003;67994;59.334;13.528;2023-07-13T00:47:00;8.7;7.7;
78678;PMS5003;67994;59.334;13.528;2023-07-13T00:48:00;8.7;7.7;
78678;PMS5003;67994;59.334;13.528;2023-07-13T00:49:01;5.2;4.1;
78678;PMS5003;67994;59.334;13.528;2023-07-13T00:50:00;5.2;4.1;
78678;PMS5003;67994;59.334;13.528;2023-07-13T00:51:00;5.2;4.1;
78678;PMS5003;67994;59.334;13.528;2023-07-13T00:52:01;5.2;4.1;
78678;PMS5003;67994;59.334;13.528;2023-07-13T00:53:00;5.2;4.1;
78678;PMS5003;67994;59.334;13.528;2023-07-13T00:54:00;7.7;7.7;
78678;PMS5003;67994;59.334;13.528;2023-07-13T00:55:00;7.7;7.7;
78678;PMS5003;67994;59.334;13.528;2023-07-13T00:56:00;7.7;7.7;
78678;PMS5003;67994;59.334;13.528;2023-07-13T00:57:00;7.7;7.7;
78678;PMS5003;67994;59.334;13.528;2023-07-13T00:58:00;7.7;7.7;
78678;PMS5003;67994;59.334;13.528;2023-07-13T00:59:00;5.0;4.0;
78678;PMS5003;67994;59.334;13.528;2023-07-13T01:00:00;5.0;4.0;
78678;PMS5003;67994;59.334;13.528;2023-07-13T01:01:00;5.0;4.0;
78678;PMS5003;67994;59.334;13.528;2023-07-13T01:02:00;5.0;4.0;
78678;PMS5003;67994;59.334;13.528;2023-07-13T01:03:00;5.0;4.0;
78678;PMS5003;67994;59.334;13.528;2023-07-13T01:04:00;6.6;6.6;
78678;PMS5003;67994;59.334;13.528;2023-07-13T01:05:00;6.6;6.6;
78678;PMS5003;67994;59.334;13.528;2023-07-13T01:06:00;6.6;6.6;
78678;PMS5003;67994;59.334;13.528;2023-07-13T01:07:00;6.6;6.6;
78678;PMS5003;67994;59.334;13.528;2023-07-13T01:08:00;6.6;6.6;
78678;PMS5003;67994;59.334;13.528;2023-07-13T01:09:00;5.6;5.6;
78678;PMS5003;67994;59.334;13.528;2023-07-13T01:10:00;5.6;5.6;
78678;PMS5003;67994;59.334;13.528;2023-07-13T01:11:00;5.6;5.6;
78678;PMS5003;67994;59.334;13.528;2023-07-13T01:12:00;5.6;5.6;
78678;PMS5003;67994;59.334;13.528;2023-07-13T01:13:00;5.6;5.6;
78678;PMS5003;67994;59.334;13.528;2023-07-13T01:14:00;6.7;4.9;
78678;PMS5003;67994;59.334;13.528;2023-07-13T01:15:00;6.7;4.9;
78678;PMS5003;67994;59.334;13.528;2023-07-13T01:16:01;6.7;4.9;
78678;PMS5003;67994;59.334;13.528;2023-07-13T01:17:00;6.7;4.9;
78678;PMS5003;67994;59.334;13.528;2023-07-13T01:18:00;6.7;4.9;
78678;PMS5003;67994;59.334;13.528;2023-07-13T01:19:00;5.8;4.7;
78678;PMS5003;67994;59.334;13.528;2023-07-13T01:20:00;5.8;4.7;
78678;PMS5003;67994;59.334;13.528;2023-07-13T01:21:01;5.8;4.7;
78678;PMS5003;67994;59.334;13.528;2023-07-13T01:22:00;5.8;4.7;
78678;PMS5003;67994;59.334;13.528;2023-07-13T01:23:00;5.8;4.7;
78678;PMS5003;67994;59.334;13.528;2023-07-13T01:24:00;7.0;4.6;
78678;PMS5003;67994;59.334;13.528;2023-07-13T01:25:00;7.0;4.6;
78678;PMS5003;67994;59.334;13.528;2023-07-13T01:26:00;7.0;4.6;
78678;PMS5003;67994;59.334;13.528;2023-07-13T01:27:00;7.0;4.6;
78678;PMS5003;67994;59.334;13.528;2023-07-13T01:28:00;7.0;4.6;
78678;PMS5003;67994;59.334;13.528;2023-07-13T01:29:00;2.0;2.0;
78678;PMS5003;67994;59.334;13.528;2023-07-13T01:30:00;2.0;2.0;
78678;PMS5003;67994;59.334;13.528;2023-07-13T01:31:00;2.0;2.0;
78678;PMS5003;67994;59.334;13.528;2023-07-13T01:32:00;2.0;2.0;
78678;PMS5003;67994;59.334;13.528;2023-07-13T01:33:00;2.0;2.0;
78678;PMS5003;67994;59.334;13.528;2023-07-13T01:34:00;5.0;5.0;
78678;PMS5003;67994;59.334;13.528;2023-07-13T01:35:00;5.0;5.0;
78678;PMS5003;67994;59.334;13.528;2023-07-13T01:36:00;5.0;5.0;
78678;PMS5003;67994;59.334;13.528;2023-07-13T01:37:00;5.0;5.0;
78678;PMS5003;67994;59.334;13.528;2023-07-13T01:38:00;5.0;5.0;
78678;PMS5003;67994;59.334;13.528;2023-07-13T01:39:00;3.4;3.4;
78678;PMS5003;67994;59.334;13.528;2023-07-13T01:40:00;3.4;3.4;
78678;PMS5003;67994;59.334;13.528;2023-07-13T01:41:00;3.4;3.4;
78678;PMS5003;67994;59.334;13.528;2023-07-13T01:42:00;3.4;3.4;
78678;PMS5003;67994;59.334;13.528;2023-07-13T01:43:00;3.4;3.4;
78678;PMS5003;67994;59.334;13.528;2023-07-13T01:44:00;3.4;3.4;
78678;PMS5003;67994;59.334;13.528;2023-07-13T01:45:00;3.4;3.4;
78678;PMS5003;67994;59.334;13.528;2023-07-13T01:46:00;3.4;3.4;
78678;PMS5003;67994;59.334;13.528;2023-07-13T01:47:00;3.4;3.4;
78678;PMS5003;67994;59.334;13.528;2023-07-13T01:48:00;3.4;3.4;
78678;PMS5003;67994;59.334;13.528;2023-07-13T01:49:00;4.4;4.4;
78678;PMS5003;67994;59.334;13.528;2023-07-13T01:50:00;4.4;4.4;
78678;PMS5003;67994;59.334;13.528;2023-07-13T01:51:00;4.4;4.4;
78678;PMS5003;67994;59.334;13.528;2023-07-13T01:52:00;4.4;4.4;
78678;PMS5003;67994;59.334;13.528;2023-07-13T01:53:00;4.4;4.4;
78678;PMS5003;67994;59.334;13.528;2023-07-13T01:54:00;4.0;3.6;
78678;PMS5003;67994;59.334;13.528;2023-07-13T01:55:00;4.0;3.6;
78678;PMS5003;67994;59.334;13.528;2023-07-13T01:56:00;4.0;3.6;
78678;PMS5003;67994;59.334;13.528;2023-07-13T01:57:00;4.0;3.6;
78678;PMS5003;67994;59.334;13.528;2023-07-13T01:58:00;4.0;3.6;
78678;PMS5003;67994;59.334;13.528;2023-07-13T01:59:00;5.0;4.3;
78678;PMS5003;67994;59.334;13.528;2023-07-13T02:00:01;5.0;4.3;
78678;PMS5003;67994;59.334;13.528;2023-07-13T02:01:00;5.0;4.3;
78678;PMS5003;67994;59.334;13.528;2023-07-13T02:02:00;5.0;4.3;
78678;PMS5003;67994;59.334;13.528;2023-07-13T02:03:00;5.0;4.3;
78678;PMS5003;67994;59.334;13.528;2023-07-13T02:04:00;5.0;4.1;
78678;PMS5003;67994;59.334;13.528;2023-07-13T02:05:00;5.0;4.1;
78678;PMS5003;67994;59.334;13.528;2023-07-13T02:06:00;5.0;4.1;
78678;PMS5003;67994;59.334;13.528;2023-07-13T02:07:00;5.0;4.1;
78678;PMS5003;67994;59.334;13.528;2023-07-13T02:08:00;5.0;4.1;
78678;PMS5003;67994;59.334;13.528;2023-07-13T02:09:00;6.8;3.8;
78678;PMS5003;67994;59.334;13.528;2023-07-13T02:10:00;6.8;3.8;
78678;PMS5003;67994;59.334;13.528;2023-07-13T02:11:00;6.8;3.8;
78678;PMS5003;67994;59.334;13.528;2023-07-13T02:12:00;6.8;3.8;
78678;PMS5003;67994;59.334;13.528;2023-07-13T02:13:00;6.8;3.8;
78678;PMS5003;67994;59.334;13.528;2023-07-13T02:14:00;4.7;4.7;
78678;PMS5003;67994;59.334;13.528;2023-07-13T02:15:00;4.7;4.7;
78678;PMS5003;67994;59.334;13.528;2023-07-13T02:16:00;4.7;4.7;
78678;PMS5003;67994;59.334;13.528;2023-07-13T02:17:00;4.7;4.7;
78678;PMS5003;67994;59.334;13.528;2023-07-13T02:18:00;4.7;4.7;
78678;PMS5003;67994;59.334;13.528;2023-07-13T02:19:00;3.5;3.5;
78678;PMS5003;67994;59.334;13.528;2023-07-13T02:20:00;3.5;3.5;
78678;PMS5003;67994;59.334;13.528;2023-07-13T02:21:00;3.5;3.5;
78678;PMS5003;67994;59.334;13.528;2023-07-13T02:22:00;3.5;3.5;
78678;PMS5003;67994;59.334;13.528;2023-07-13T02:23:00;3.5;3.5;
78678;PMS5003;67994;59.334;13.528;2023-07-13T02:24:00;5.0;5.0;
78678;PMS5003;67994;59.334;13.528;2023-07-13T02:25:00;5.0;5.0;
78678;PMS5003;67994;59.334;13.528;2023-07-13T02:26:00;5.0;5.0;
78678;PMS5003;67994;59.334;13.528;2023-07-13T02:27:00;5.0;5.0;
78678;PMS5003;67994;59.334;13.528;2023-07-13T02:28:00;5.0;5.0;
78678;PMS5003;67994;59.334;13.528;2023-07-13T02:29:00;4.6;4.0;
78678;PMS5003;67994;59.334;13.528;2023-07-13T02:30:00;4.6;4.0;
78678;PMS5003;67994;59.334;13.528;2023-07-13T02:31:08;4.6;4.0;
78678;PMS5003;67994;59.334;13.528;2023-07-13T02:32:00;4.6;4.0;
78678;PMS5003;67994;59.334;13.528;2023-07-13T02:33:00;4.6;4.0;
78678;PMS5003;67994;59.334;13.528;2023-07-13T02:34:00;3.9;3.0;
78678;PMS5003;67994;59.334;13.528;2023-07-13T02:35:00;3.9;3.0;
78678;PMS5003;67994;59.334;13.528;2023-07-13T02:36:00;3.9;3.0;
78678;PMS5003;67994;59.334;13.528;2023-07-13T02:37:00;3.9;3.0;
78678;PMS5003;67994;59.334;13.528;2023-07-13T02:38:00;3.9;3.0;
78678;PMS5003;67994;59.334;13.528;2023-07-13T02:39:00;7.6;7.0;
78678;PMS5003;67994;59.334;13.528;2023-07-13T02:40:00;7.6;7.0;
78678;PMS5003;67994;59.334;13.528;2023-07-13T02:41:00;7.6;7.0;
78678;PMS5003;67994;59.334;13.528;2023-07-13T02:42:00;7.6;7.0;
78678;PMS5003;67994;59.334;13.528;2023-07-13T02:43:00;7.6;7.0;
78678;PMS5003;67994;59.334;13.528;2023-07-13T02:44:00;4.1;4.1;
78678;PMS5003;67994;59.334;13.528;2023-07-13T02:45:00;4.1;4.1;
78678;PMS5003;67994;59.334;13.528;2023-07-13T02:46:00;4.1;4.1;
78678;PMS5003;67994;59.334;13.528;2023-07-13T02:47:00;4.1;4.1;
78678;PMS5003;67994;59.334;13.528;2023-07-13T02:48:00;4.1;4.1;
78678;PMS5003;67994;59.334;13.528;2023-07-13T02:49:00;5.0;4.6;
78678;PMS5003;67994;59.334;13.528;2023-07-13T02:50:00;5.0;4.6;
78678;PMS5003;67994;59.334;13.528;2023-07-13T02:51:00;5.0;4.6;
78678;PMS5003;67994;59.334;13.528;2023-07-13T02:52:01;5.0;4.6;
78678;PMS5003;67994;59.334;13.528;2023-07-13T02:53:00;5.0;4.6;
78678;PMS5003;67994;59.334;13.528;2023-07-13T02:54:00;6.9;4.4;
78678;PMS5003;67994;59.334;13.528;2023-07-13T02:55:00;6.9;4.4;
78678;PMS5003;67994;59.334;13.528;2023-07-13T02:56:00;6.9;4.4;
78678;PMS5003;67994;59.334;13.528;2023-07-13T02:57:00;6.9;4.4;
78678;PMS5003;67994;59.334;13.528;2023-07-13T02:58:00;6.9;4.4;
78678;PMS5003;67994;59.334;13.528;2023-07-13T02:59:00;4.0;4.0;
78678;PMS5003;67994;59.334;13.528;2023-07-13T03:00:00;4.0;4.0;
78678;PMS5003;67994;59.334;13.528;2023-07-13T03:01:05;4.0;4.0;
78678;PMS5003;67994;59.334;13.528;2023-07-13T03:02:00;4.0;4.0;
78678;PMS5003;67994;59.334;13.528;2023-07-13T03:03:00;4.0;4.0;
78678;PMS5003;67994;59.334;13.528;2023-07-13T03:04:00;7.2;4.7;
78678;PMS5003;67994;59.334;13.528;2023-07-13T03:05:00;7.2;4.7;
78678;PMS5003;67994;59.334;13.528;2023-07-13T03:06:01;7.2;4.7;
78678;PMS5003;67994;59.334;13.528;2023-07-13T03:07:00;7.2;4.7;
78678;PMS5003;67994;59.334;13.528;2023-07-13T03:08:00;7.2;4.7;
78678;PMS5003;67994;59.334;13.528;2023-07-13T03:09:00;4.7;4.7;
78678;PMS5003;67994;59.334;13.528;2023-07-13T03:10:00;4.7;4.7;
78678;PMS5003;67994;59.334;13.528;2023-07-13T03:11:00;4.7;4.7;
78678;PMS5003;67994;59.334;13.528;2023-07-13T03:12:00;4.7;4.7;
78678;PMS5003;67994;59.334;13.528;2023-07-13T03:13:00;4.7;4.7;
78678;PMS5003;67994;59.334;13.528;2023-07-13T03:14:00;7.4;4.1;
78678;PMS5003;67994;59.334;13.528;2023-07-13T03:15:00;7.4;4.1;
78678;PMS5003;67994;59.334;13.528;2023-07-13T03:16:00;7.4;4.1;
78678;PMS5003;67994;59.334;13.528;2023-07-13T03:17:00;7.4;4.1;
78678;PMS5003;67994;59.334;13.528;2023-07-13T03:18:00;7.4;4.1;
78678;PMS5003;67994;59.334;13.528;2023-07-13T03:19:00;8.3;4.9;
78678;PMS5003;67994;59.334;13.528;2023-07-13T03:20:00;8.3;4.9;
78678;PMS5003;67994;59.334;13.528;2023-07-13T03:21:00;8.3;4.9;
78678;PMS5003;67994;59.334;13.528;2023-07-13T03:22:00;8.3;4.9;
78678;PMS5003;67994;59.334;13.528;2023-07-13T03:23:00;8.3;4.9;
78678;PMS5003;67994;59.334;13.528;2023-07-13T03:24:00;8.0;4.7;
78678;PMS5003;67994;59.334;13.528;2023-07-13T03:25:00;8.0;4.7;
78678;PMS5003;67994;59.334;13.528;2023-07-13T03:26:01;8.0;4.7;
78678;PMS5003;67994;59.334;13.528;2023-07-13T03:27:00;8.0;4.7;
78678;PMS5003;67994;59.334;13.528;2023-07-13T03:28:00;8.0;4.7;
78678;PMS5003;67994;59.334;13.528;2023-07-13T03:29:00;6.0;3.0;
78678;PMS5003;67994;59.334;13.528;2023-07-13T03:30:00;6.0;3.0;
78678;PMS5003;67994;59.334;13.528;2023-07-13T03:31:00;6.0;3.0;
78678;PMS5003;67994;59.334;13.528;2023-07-13T03:32:00;6.0;3.0;
78678;PMS5003;67994;59.334;13.528;2023-07-13T03:33:00;6.0;3.0;
78678;PMS5003;67994;59.334;13.528;2023-07-13T03:34:00;3.0;3.0;
78678;PMS5003;67994;59.334;13.528;2023-07-13T03:35:00;3.0;3.0;
78678;PMS5003;67994;59.334;13.528;2023-07-13T03:36:00;3.0;3.0;
78678;PMS5003;67994;59.334;13.528;2023-07-13T03:37:00;3.0;3.0;
78678;PMS5003;67994;59.334;13.528;2023-07-13T03:38:00;3.0;3.0;
78678;PMS5003;67994;59.334;13.528;2023-07-13T03:39:01;3.7;3.4;
78678;PMS5003;67994;59.334;13.528;2023-07-13T03:40:00;3.7;3.4;
78678;PMS5003;67994;59.334;13.528;2023-07-13T03:41:00;3.7;3.4;
78678;PMS5003;67994;59.334;13.528;2023-07-13T03:42:00;3.7;3.4;
78678;PMS5003;67994;59.334;13.528;2023-07-13T03:43:00;3.7;3.4;
78678;PMS5003;67994;59.334;13.528;2023-07-13T03:44:00;2.0;2.0;
78678;PMS5003;67994;59.334;13.528;2023-07-13T03:45:00;2.0;2.0;
78678;PMS5003;67994;59.334;13.528;2023-07-13T03:46:00;2.0;2.0;
78678;PMS5003;67994;59.334;13.528;2023-07-13T03:47:00;2.0;2.0;
78678;PMS5003;67994;59.334;13.528;2023-07-13T03:48:00;2.0;2.0;
78678;PMS5003;67994;59.334;13.528;2023-07-13T03:49:00;5.0;3.7;
78678;PMS5003;67994;59.334;13.528;2023-07-13T03:50:00;5.0;3.7;
78678;PMS5003;67994;59.334;13.528;2023-07-13T03:51:00;5.0;3.7;
78678;PMS5003;67994;59.334;13.528;2023-07-13T03:52:00;5.0;3.7;
78678;PMS5003;67994;59.334;13.528;2023-07-13T03:53:00;5.0;3.7;
78678;PMS5003;67994;59.334;13.528;2023-07-13T03:54:00;5.3;5.3;
78678;PMS5003;67994;59.334;13.528;2023-07-13T03:55:00;5.3;5.3;
78678;PMS5003;67994;59.334;13.528;2023-07-13T03:56:00;5.3;5.3;
78678;PMS5003;67994;59.334;13.528;2023-07-13T03:57:00;5.3;5.3;
78678;PMS5003;67994;59.334;13.528;2023-07-13T03:58:00;5.3;5.3;
78678;PMS5003;67994;59.334;13.528;2023-07-13T03:59:00;9.7;4.4;
78678;PMS5003;67994;59.334;13.528;2023-07-13T04:00:00;9.7;4.4;
78678;PMS5003;67994;59.334;13.528;2023-07-13T04:01:00;9.7;4.4;
78678;PMS5003;67994;59.334;13.528;2023-07-13T04:02:00;9.7;4.4;
78678;PMS5003;67994;59.334;13.528;2023-07-13T04:03:00;9.7;4.4;
78678;PMS5003;67994;59.334;13.528;2023-07-13T04:04:00;7.1;4.0;
78678;PMS5003;67994;59.334;13.528;2023-07-13T04:05:00;7.1;4.0;
78678;PMS5003;67994;59.334;13.528;2023-07-13T04:06:00;7.1;4.0;
78678;PMS5003;67994;59.334;13.528;2023-07-13T04:07:00;7.1;4.0;
78678;PMS5003;67994;59.334;13.528;2023-07-13T04:08:00;7.1;4.0;
78678;PMS5003;67994;59.334;13.528;2023-07-13T04:09:00;5.0;5.0;
78678;PMS5003;67994;59.334;13.528;2023-07-13T04:10:00;5.0;5.0;
78678;PMS5003;67994;59.334;13.528;2023-07-13T04:11:00;5.0;5.0;
78678;PMS5003;67994;59.334;13.528;2023-07-13T04:12:00;5.0;5.0;
78678;PMS5003;67994;59.334;13.528;2023-07-13T04:13:00;5.0;5.0;
78678;PMS5003;67994;59.334;13.528;2023-07-13T04:14:00;5.5;3.8;
78678;PMS5003;67994;59.334;13.528;2023-07-13T04:15:00;5.5;3.8;
78678;PMS5003;67994;59.334;13.528;2023-07-13T04:16:00;5.5;3.8;
78678;PMS5003;67994;59.334;13.528;2023-07-13T04:17:00;5.5;3.8;
78678;PMS5003;67994;59.334;13.528;2023-07-13T04:18:00;5.5;3.8;
78678;PMS5003;67994;59.334;13.528;2023-07-13T04:19:00;5.1;4.1;
78678;PMS5003;67994;59.334;13.528;2023-07-13T04:20:00;5.1;4.1;
78678;PMS5003;67994;59.334;13.528;2023-07-13T04:21:00;5.1;4.1;
78678;PMS5003;67994;59.334;13.528;2023-07-13T04:22:00;5.1;4.1;
78678;PMS5003;67994;59.334;13.528;2023-07-13T04:23:00;5.1;4.1;
78678;PMS5003;67994;59.334;13.528;2023-07-13T04:24:00;4.0;4.0;
78678;PMS5003;67994;59.334;13.528;2023-07-13T04:25:00;4.0;4.0;
78678;PMS5003;67994;59.334;13.528;2023-07-13T04:26:00;4.0;4.0;
78678;PMS5003;67994;59.334;13.528;2023-07-13T04:27:00;4.0;4.0;
78678;PMS5003;67994;59.334;13.528;2023-07-13T04:28:00;4.0;4.0;
78678;PMS5003;67994;59.334;13.528;2023-07-13T04:29:00;2.9;2.7;
78678;PMS5003;67994;59.334;13.528;2023-07-13T04:30:00;2.9;2.7;
78678;PMS5003;67994;59.334;13.528;2023-07-13T04:31:00;2.9;2.7;
78678;PMS5003;67994;59.334;13.528;2023-07-13T04:32:00;2.9;2.7;
78678;PMS5003;67994;59.334;13.528;2023-07-13T04:33:00;2.9;2.7;
78678;PMS5003;67994;59.334;13.528;2023-07-13T04:34:00;4.1;4.1;
78678;PMS5003;67994;59.334;13.528;2023-07-13T04:35:00;4.1;4.1;
78678;PMS5003;67994;59.334;13.528;2023-07-13T04:36:00;4.1;4.1;
78678;PMS5003;67994;59.334;13.528;2023-07-13T04:37:00;4.1;4.1;
78678;PMS5003;67994;59.334;13.528;2023-07-13T04:38:00;4.1;4.1;
78678;PMS5003;67994;59.334;13.528;2023-07-13T04:39:00;6.7;6.7;
78678;PMS5003;67994;59.334;13.528;2023-07-13T04:40:00;6.7;6.7;
78678;PMS5003;67994;59.334;13.528;2023-07-13T04:41:00;6.7;6.7;
78678;PMS5003;67994;59.334;13.528;2023-07-13T04:42:00;6.7;6.7;
78678;PMS5003;67994;59.334;13.528;2023-07-13T04:43:00;6.7;6.7;
78678;PMS5003;67994;59.334;13.528;2023-07-13T04:44:00;5.0;5.0;
78678;PMS5003;67994;59.334;13.528;2023-07-13T04:45:00;5.0;5.0;
78678;PMS5003;67994;59.334;13.528;2023-07-13T04:46:02;5.0;5.0;
78678;PMS5003;67994;59.334;13.528;2023-07-13T04:47:00;5.0;5.0;
78678;PMS5003;67994;59.334;13.528;2023-07-13T04:48:00;5.0;5.0;
78678;PMS5003;67994;59.334;13.528;2023-07-13T04:49:00;4.7;4.1;
78678;PMS5003;67994;59.334;13.528;2023-07-13T04:50:00;4.7;4.1;
78678;PMS5003;67994;59.334;13.528;2023-07-13T04:51:00;4.7;4.1;
78678;PMS5003;67994;59.334;13.528;2023-07-13T04:52:00;4.7;4.1;
78678;PMS5003;67994;59.334;13.528;2023-07-13T04:53:00;4.7;4.1;
78678;PMS5003;67994;59.334;13.528;2023-07-13T04:54:00;7.2;5.2;
78678;PMS5003;67994;59.334;13.528;2023-07-13T04:55:00;7.2;5.2;
78678;PMS5003;67994;59.334;13.528;2023-07-13T04:56:00;7.2;5.2;
78678;PMS5003;67994;59.334;13.528;2023-07-13T04:57:00;7.2;5.2;
78678;PMS5003;67994;59.334;13.528;2023-07-13T04:58:00;7.2;5.2;
78678;PMS5003;67994;59.334;13.528;2023-07-13T04:59:00;6.4;5.1;
78678;PMS5003;67994;59.334;13.528;2023-07-13T05:00:00;6.4;5.1;
78678;PMS5003;67994;59.334;13.528;2023-07-13T05:01:00;6.4;5.1;
78678;PMS5003;67994;59.334;13.528;2023-07-13T05:02:00;6.4;5.1;
78678;PMS5003;67994;59.334;13.528;2023-07-13T05:03:00;6.4;5.1;
78678;PMS5003;67994;59.334;13.528;2023-07-13T05:04:00;7.4;5.0;
78678;PMS5003;67994;59.334;13.528;2023-07-13T05:05:00;7.4;5.0;
78678;PMS5003;67994;59.334;13.528;2023-07-13T05:06:01;7.4;5.0;
78678;PMS5003;67994;59.334;13.528;2023-07-13T05:07:00;7.4;5.0;
78678;PMS5003;67994;59.334;13.528;2023-07-13T05:08:00;7.4;5.0;
78678;PMS5003;67994;59.334;13.528;2023-07-13T05:09:00;5.0;5.0;
78678;PMS5003;67994;59.334;13.528;2023-07-13T05:10:00;5.0;5.0;
78678;PMS5003;67994;59.334;13.528;2023-07-13T05:11:00;5.0;5.0;
78678;PMS5003;67994;59.334;13.528;2023-07-13T05:12:00;5.0;5.0;
78678;PMS5003;67994;59.334;13.528;2023-07-13T05:13:00;5.0;5.0;
78678;PMS5003;67994;59.334;13.528;2023-07-13T05:14:00;6.0;6.0;
78678;PMS5003;67994;59.334;13.528;2023-07-13T05:15:00;6.0;6.0;
78678;PMS5003;67994;59.334;13.528;2023-07-13T05:16:01;6.0;6.0;
78678;PMS5003;67994;59.334;13.528;2023-07-13T05:17:00;6.0;6.0;
78678;PMS5003;67994;59.334;13.528;2023-07-13T05:18:00;6.0;6.0;
78678;PMS5003;67994;59.334;13.528;2023-07-13T05:19:00;5.9;4.0;
78678;PMS5003;67994;59.334;13.528;2023-07-13T05:20:00;5.9;4.0;
78678;PMS5003;67994;59.334;13.528;2023-07-13T05:21:00;5.9;4.0;
78678;PMS5003;67994;59.334;13.528;2023-07-13T05:22:00;5.9;4.0;
78678;PMS5003;67994;59.334;13.528;2023-07-13T05:23:00;5.9;4.0;
78678;PMS5003;67994;59.334;13.528;2023-07-13T05:24:00;4.0;3.4;
78678;PMS5003;67994;59.334;13.528;2023-07-13T05:25:00;4.0;3.4;
78678;PMS5003;67994;59.334;13.528;2023-07-13T05:26:00;4.0;3.4;
78678;PMS5003;67994;59.334;13.528;2023-07-13T05:27:00;4.0;3.4;
78678;PMS5003;67994;59.334;13.528;2023-07-13T05:28:00;4.0;3.4;
78678;PMS5003;67994;59.334;13.528;2023-07-13T05:29:00;6.2;4.0;
78678;PMS5003;67994;59.334;13.528;2023-07-13T05:30:00;6.2;4.0;
78678;PMS5003;67994;59.334;13.528;2023-07-13T05:31:00;6.2;4.0;
78678;PMS5003;67994;59.334;13.528;2023-07-13T05:32:00;6.2;4.0;
78678;PMS5003;67994;59.334;13.528;2023-07-13T05:33:00;6.2;4.0;
78678;PMS5003;67994;59.334;13.528;2023-07-13T05:34:00;3.1;3.1;
78678;PMS5003;67994;59.334;13.528;2023-07-13T05:35:00;3.1;3.1;
78678;PMS5003;67994;59.334;13.528;2023-07-13T05:36:00;3.1;3.1;
78678;PMS5003;67994;59.334;13.528;2023-07-13T05:37:00;3.1;3.1;
78678;PMS5003;67994;59.334;13.528;2023-07-13T05:38:00;3.1;3.1;
78678;PMS5003;67994;59.334;13.528;2023-07-13T05:39:00;5.7;4.7;
78678;PMS5003;67994;59.334;13.528;2023-07-13T05:40:00;5.7;4.7;
78678;PMS5003;67994;59.334;13.528;2023-07-13T05:41:00;5.7;4.7;
78678;PMS5003;67994;59.334;13.528;2023-07-13T05:42:00;5.7;4.7;
78678;PMS5003;67994;59.334;13.528;2023-07-13T05:43:00;5.7;4.7;
78678;PMS5003;67994;59.334;13.528;2023-07-13T05:44:00;6.3;4.3;
78678;PMS5003;67994;59.334;13.528;2023-07-13T05:45:00;6.3;4.3;
78678;PMS5003;67994;59.334;13.528;2023-07-13T05:46:00;6.3;4.3;
78678;PMS5003;67994;59.334;13.528;2023-07-13T05:47:00;6.3;4.3;
78678;PMS5003;67994;59.334;13.528;2023-07-13T05:48:00;6.3;4.3;
78678;PMS5003;67994;59.334;13.528;2023-07-13T05:49:00;4.4;3.7;
78678;PMS5003;67994;59.334;13.528;2023-07-13T05:50:00;4.4;3.7;
78678;PMS5003;67994;59.334;13.528;2023-07-13T05:51:00;4.4;3.7;
78678;PMS5003;67994;59.334;13.528;2023-07-13T05:52:00;4.4;3.7;
78678;PMS5003;67994;59.334;13.528;2023-07-13T05:53:00;4.4;3.7;
78678;PMS5003;67994;59.334;13.528;2023-07-13T05:54:00;5.9;4.0;
78678;PMS5003;67994;59.334;13.528;2023-07-13T05:55:00;5.9;4.0;
78678;PMS5003;67994;59.334;13.528;2023-07-13T05:56:00;5.9;4.0;
78678;PMS5003;67994;59.334;13.528;2023-07-13T05:57:00;5.9;4.0;
78678;PMS5003;67994;59.334;13.528;2023-07-13T05:58:00;5.9;4.0;
78678;PMS5003;67994;59.334;13.528;2023-07-13T05:59:00;3.0;2.0;
78678;PMS5003;67994;59.334;13.528;2023-07-13T06:00:00;3.0;2.0;
78678;PMS5003;67994;59.334;13.528;2023-07-13T06:01:00;3.0;2.0;
78678;PMS5003;67994;59.334;13.528;2023-07-13T06:02:00;3.0;2.0;
78678;PMS5003;67994;59.334;13.528;2023-07-13T06:03:00;3.0;2.0;
78678;PMS5003;67994;59.334;13.528;2023-07-13T06:04:00;3.1;3.1;
78678;PMS5003;67994;59.334;13.528;2023-07-13T06:05:00;3.1;3.1;
78678;PMS5003;67994;59.334;13.528;2023-07-13T06:06:00;3.1;3.1;
78678;PMS5003;67994;59.334;13.528;2023-07-13T06:07:00;3.1;3.1;
78678;PMS5003;67994;59.334;13.528;2023-07-13T06:08:00;3.1;3.1;
78678;PMS5003;67994;59.334;13.528;2023-07-13T06:09:00;6.3;4.0;
78678;PMS5003;67994;59.334;13.528;2023-07-13T06:10:00;6.3;4.0;
78678;PMS5003;67994;59.334;13.528;2023-07-13T06:11:01;6.3;4.0;
78678;PMS5003;67994;59.334;13.528;2023-07-13T06:12:00;6.3;4.0;
78678;PMS5003;67994;59.334;13.528;2023-07-13T06:13:00;6.3;4.0;
78678;PMS5003;67994;59.334;13.528;2023-07-13T06:14:00;4.4;3.4;
78678;PMS5003;67994;59.334;13.528;2023-07-13T06:15:00;4.4;3.4;
78678;PMS5003;67994;59.334;13.528;2023-07-13T06:16:00;4.4;3.4;
78678;PMS5003;67994;59.334;13.528;2023-07-13T06:17:00;4.4;3.4;
78678;PMS5003;67994;59.334;13.528;2023-07-13T06:18:00;4.4;3.4;